sensor_id;sensor_type;location;lat;lon;timestamp;temperature;humidity
76172;DHT22;64929;51.178;4.138;2024-02-15T00:01:00;13.30;99.90
76172;DHT22;64929;51.178;4.138;2024-02-15T00:03:26;13.40;99.90
76172;DHT22;64929;51.178;4.138;2024-02-15T00:05:52;13.40;99.90
76172;DHT22;64929;51.178;4.138;2024-02-15T00:08:18;13.40;99.90
76172;DHT22;64929;51.178;4.138;2024-02-15T00:10:45;13.40;99.90
76172;DHT22;64929;51.178;4.138;2024-02-15T00:13:12;13.40;99.90
76172;DHT22;64929;51.178;4.138;2024-02-15T00:15:38;13.40;99.90
76172;DHT22;64929;51.178;4.138;2024-02-15T00:18:04;13.40;99.90
76172;DHT22;64929;51.178;4.138;2024-02-15T00:20:30;13.40;99.90
76172;DHT22;64929;51.178;4.138;2024-02-15T00:22:55;13.30;99.90
76172;DHT22;64929;51.178;4.138;2024-02-15T00:25:21;13.40;99.90
76172;DHT22;64929;51.178;4.138;2024-02-15T00:27:47;13.50;99.90
76172;DHT22;64929;51.178;4.138;2024-02-15T00:30:13;13.40;99.90
76172;DHT22;64929;51.178;4.138;2024-02-15T00:32:39;13.40;99.90
76172;DHT22;64929;51.178;4.138;2024-02-15T00:35:05;13.40;99.90
76172;DHT22;64929;51.178;4.138;2024-02-15T00:37:33;13.50;99.90
76172;DHT22;64929;51.178;4.138;2024-02-15T00:39:59;13.40;99.90
76172;DHT22;64929;51.178;4.138;2024-02-15T00:42:25;13.50;99.90
76172;DHT22;64929;51.178;4.138;2024-02-15T00:44:51;13.40;99.90
76172;DHT22;64929;51.178;4.138;2024-02-15T00:47:16;13.40;99.90
76172;DHT22;64929;51.178;4.138;2024-02-15T00:49:44;13.40;99.90
76172;DHT22;64929;51.178;4.138;2024-02-15T00:52:10;13.50;99.90
76172;DHT22;64929;51.178;4.138;2024-02-15T00:54:35;13.50;99.90
76172;DHT22;64929;51.178;4.138;2024-02-15T00:57:01;13.50;99.90
76172;DHT22;64929;51.178;4.138;2024-02-15T00:59:27;13.50;99.90
76172;DHT22;64929;51.178;4.138;2024-02-15T01:01:52;13.50;99.90
76172;DHT22;64929;51.178;4.138;2024-02-15T01:04:19;13.40;99.90
76172;DHT22;64929;51.178;4.138;2024-02-15T01:06:44;13.40;99.90
76172;DHT22;64929;51.178;4.138;2024-02-15T01:09:10;13.40;99.90
76172;DHT22;64929;51.178;4.138;2024-02-15T01:11:36;13.50;99.90
76172;DHT22;64929;51.178;4.138;2024-02-15T01:14:03;13.50;99.90
76172;DHT22;64929;51.178;4.138;2024-02-15T01:16:28;13.40;99.90
76172;DHT22;64929;51.178;4.138;2024-02-15T01:18:54;13.40;99.90
76172;DHT22;64929;51.178;4.138;2024-02-15T01:21:20;13.40;99.90
76172;DHT22;64929;51.178;4.138;2024-02-15T01:23:47;13.40;99.90
76172;DHT22;64929;51.178;4.138;2024-02-15T01:26:13;13.50;99.90
76172;DHT22;64929;51.178;4.138;2024-02-15T01:28:40;13.40;99.90
76172;DHT22;64929;51.178;4.138;2024-02-15T01:31:09;13.50;99.90
76172;DHT22;64929;51.178;4.138;2024-02-15T01:33:38;13.50;99.90
76172;DHT22;64929;51.178;4.138;2024-02-15T01:36:04;13.50;99.90
76172;DHT22;64929;51.178;4.138;2024-02-15T01:38:30;13.50;99.90
76172;DHT22;64929;51.178;4.138;2024-02-15T01:40:56;13.50;99.90
76172;DHT22;64929;51.178;4.138;2024-02-15T01:43:22;13.60;99.90
76172;DHT22;64929;51.178;4.138;2024-02-15T01:45:47;13.60;99.90
76172;DHT22;64929;51.178;4.138;2024-02-15T01:48:15;13.70;99.90
76172;DHT22;64929;51.178;4.138;2024-02-15T01:50:41;13.60;99.90
76172;DHT22;64929;51.178;4.138;2024-02-15T01:53:09;13.60;99.90
76172;DHT22;64929;51.178;4.138;2024-02-15T01:55:37;13.70;99.90
76172;DHT22;64929;51.178;4.138;2024-02-15T01:58:03;13.70;99.90
76172;DHT22;64929;51.178;4.138;2024-02-15T02:00:30;13.70;99.90
76172;DHT22;64929;51.178;4.138;2024-02-15T02:02:57;13.70;99.90
76172;DHT22;64929;51.178;4.138;2024-02-15T02:05:28;13.50;99.90
76172;DHT22;64929;51.178;4.138;2024-02-15T02:07:55;13.50;99.90
76172;DHT22;64929;51.178;4.138;2024-02-15T02:10:25;13.40;99.90
76172;DHT22;64929;51.178;4.138;2024-02-15T02:12:52;13.50;99.90
76172;DHT22;64929;51.178;4.138;2024-02-15T02:15:18;13.60;99.90
76172;DHT22;64929;51.178;4.138;2024-02-15T02:17:49;13.60;99.90
76172;DHT22;64929;51.178;4.138;2024-02-15T02:20:15;13.70;99.90
76172;DHT22;64929;51.178;4.138;2024-02-15T02:22:41;13.60;99.90
76172;DHT22;64929;51.178;4.138;2024-02-15T02:25:08;13.60;99.90
76172;DHT22;64929;51.178;4.138;2024-02-15T02:27:35;13.50;99.90
76172;DHT22;64929;51.178;4.138;2024-02-15T02:30:05;13.40;99.90
76172;DHT22;64929;51.178;4.138;2024-02-15T02:32:34;13.40;99.90
76172;DHT22;64929;51.178;4.138;2024-02-15T02:35:02;13.20;99.90
76172;DHT22;64929;51.178;4.138;2024-02-15T02:37:28;13.30;99.90
76172;DHT22;64929;51.178;4.138;2024-02-15T02:39:54;13.20;99.90
76172;DHT22;64929;51.178;4.138;2024-02-15T02:42:20;13.30;99.90
76172;DHT22;64929;51.178;4.138;2024-02-15T02:44:46;13.20;99.90
76172;DHT22;64929;51.178;4.138;2024-02-15T02:47:12;13.20;99.90
76172;DHT22;64929;51.178;4.138;2024-02-15T02:49:38;13.10;99.90
76172;DHT22;64929;51.178;4.138;2024-02-15T02:52:04;13.10;99.90
76172;DHT22;64929;51.178;4.138;2024-02-15T02:54:30;13.00;99.90
76172;DHT22;64929;51.178;4.138;2024-02-15T02:56:56;13.00;99.90
76172;DHT22;64929;51.178;4.138;2024-02-15T02:59:21;12.90;99.90
76172;DHT22;64929;51.178;4.138;2024-02-15T03:01:48;13.00;99.90
76172;DHT22;64929;51.178;4.138;2024-02-15T03:04:16;12.90;99.90
76172;DHT22;64929;51.178;4.138;2024-02-15T03:06:43;12.80;99.90
76172;DHT22;64929;51.178;4.138;2024-02-15T03:09:09;12.80;99.90
76172;DHT22;64929;51.178;4.138;2024-02-15T03:11:35;12.90;99.90
76172;DHT22;64929;51.178;4.138;2024-02-15T03:14:02;12.80;99.90
76172;DHT22;64929;51.178;4.138;2024-02-15T03:16:31;12.80;99.90
76172;DHT22;64929;51.178;4.138;2024-02-15T03:18:56;12.90;99.90
76172;DHT22;64929;51.178;4.138;2024-02-15T03:21:22;12.90;99.90
76172;DHT22;64929;51.178;4.138;2024-02-15T03:23:48;12.90;99.90
76172;DHT22;64929;51.178;4.138;2024-02-15T03:26:13;13.00;99.90
76172;DHT22;64929;51.178;4.138;2024-02-15T03:28:39;13.00;99.90
76172;DHT22;64929;51.178;4.138;2024-02-15T03:31:05;13.00;99.90
76172;DHT22;64929;51.178;4.138;2024-02-15T03:33:31;12.90;99.90
76172;DHT22;64929;51.178;4.138;2024-02-15T03:36:01;13.00;99.90
76172;DHT22;64929;51.178;4.138;2024-02-15T03:38:27;13.00;99.90
76172;DHT22;64929;51.178;4.138;2024-02-15T03:40:55;13.00;99.90
76172;DHT22;64929;51.178;4.138;2024-02-15T03:43:21;12.90;99.90
76172;DHT22;64929;51.178;4.138;2024-02-15T03:45:49;12.90;99.90
76172;DHT22;64929;51.178;4.138;2024-02-15T03:48:14;13.00;99.90
76172;DHT22;64929;51.178;4.138;2024-02-15T03:50:41;13.00;99.90
76172;DHT22;64929;51.178;4.138;2024-02-15T03:53:09;13.00;99.90
76172;DHT22;64929;51.178;4.138;2024-02-15T03:55:36;13.00;99.90
76172;DHT22;64929;51.178;4.138;2024-02-15T03:58:02;12.80;99.90
76172;DHT22;64929;51.178;4.138;2024-02-15T04:00:28;12.90;99.90
76172;DHT22;64929;51.178;4.138;2024-02-15T04:02:53;12.90;99.90
76172;DHT22;64929;51.178;4.138;2024-02-15T04:05:20;13.00;99.90
76172;DHT22;64929;51.178;4.138;2024-02-15T04:07:47;13.00;99.90
76172;DHT22;64929;51.178;4.138;2024-02-15T04:10:13;13.00;99.90
76172;DHT22;64929;51.178;4.138;2024-02-15T04:12:39;13.00;99.90
76172;DHT22;64929;51.178;4.138;2024-02-15T04:15:07;12.90;99.90
76172;DHT22;64929;51.178;4.138;2024-02-15T04:17:37;13.00;99.90
76172;DHT22;64929;51.178;4.138;2024-02-15T04:20:04;13.00;99.90
76172;DHT22;64929;51.178;4.138;2024-02-15T04:22:34;13.00;99.90
76172;DHT22;64929;51.178;4.138;2024-02-15T04:25:05;12.90;99.90
76172;DHT22;64929;51.178;4.138;2024-02-15T04:27:32;12.90;99.90
76172;DHT22;64929;51.178;4.138;2024-02-15T04:29:57;12.90;99.90
76172;DHT22;64929;51.178;4.138;2024-02-15T04:32:23;13.00;99.90
76172;DHT22;64929;51.178;4.138;2024-02-15T04:34:49;13.00;99.90
76172;DHT22;64929;51.178;4.138;2024-02-15T04:37:15;13.00;99.90
76172;DHT22;64929;51.178;4.138;2024-02-15T04:39:42;13.00;99.90
76172;DHT22;64929;51.178;4.138;2024-02-15T04:42:08;13.00;99.90
76172;DHT22;64929;51.178;4.138;2024-02-15T04:44:38;13.00;99.90
76172;DHT22;64929;51.178;4.138;2024-02-15T04:47:05;13.00;99.90
76172;DHT22;64929;51.178;4.138;2024-02-15T04:49:31;13.00;99.90
76172;DHT22;64929;51.178;4.138;2024-02-15T04:51:56;13.10;99.90
76172;DHT22;64929;51.178;4.138;2024-02-15T04:54:27;13.10;99.90
76172;DHT22;64929;51.178;4.138;2024-02-15T04:56:54;13.10;99.90
76172;DHT22;64929;51.178;4.138;2024-02-15T04:59:21;13.00;99.90
76172;DHT22;64929;51.178;4.138;2024-02-15T05:01:54;13.10;99.90
76172;DHT22;64929;51.178;4.138;2024-02-15T05:04:19;13.10;99.90
76172;DHT22;64929;51.178;4.138;2024-02-15T05:06:45;13.20;99.90
76172;DHT22;64929;51.178;4.138;2024-02-15T05:09:11;13.30;99.90
76172;DHT22;64929;51.178;4.138;2024-02-15T05:11:37;13.20;99.90
76172;DHT22;64929;51.178;4.138;2024-02-15T05:14:07;13.20;99.90
76172;DHT22;64929;51.178;4.138;2024-02-15T05:16:35;13.30;99.90
76172;DHT22;64929;51.178;4.138;2024-02-15T05:19:08;13.30;99.90
76172;DHT22;64929;51.178;4.138;2024-02-15T05:21:37;13.30;99.90
76172;DHT22;64929;51.178;4.138;2024-02-15T05:24:04;13.30;99.90
76172;DHT22;64929;51.178;4.138;2024-02-15T05:26:29;13.30;99.90
76172;DHT22;64929;51.178;4.138;2024-02-15T05:28:55;13.10;99.90
76172;DHT22;64929;51.178;4.138;2024-02-15T05:31:21;13.00;99.90
76172;DHT22;64929;51.178;4.138;2024-02-15T05:33:51;13.10;99.90
76172;DHT22;64929;51.178;4.138;2024-02-15T05:36:18;13.20;99.90
76172;DHT22;64929;51.178;4.138;2024-02-15T05:38:52;13.10;99.90
76172;DHT22;64929;51.178;4.138;2024-02-15T05:41:19;13.10;99.90
76172;DHT22;64929;51.178;4.138;2024-02-15T05:43:46;13.20;99.90
76172;DHT22;64929;51.178;4.138;2024-02-15T05:46:14;13.30;99.90
76172;DHT22;64929;51.178;4.138;2024-02-15T05:48:40;13.40;99.90
76172;DHT22;64929;51.178;4.138;2024-02-15T05:51:07;13.30;99.90
76172;DHT22;64929;51.178;4.138;2024-02-15T05:53:34;13.40;99.90
76172;DHT22;64929;51.178;4.138;2024-02-15T05:56:02;13.30;99.90
76172;DHT22;64929;51.178;4.138;2024-02-15T05:58:30;13.40;99.90
76172;DHT22;64929;51.178;4.138;2024-02-15T06:00:56;13.40;99.90
76172;DHT22;64929;51.178;4.138;2024-02-15T06:03:27;13.30;99.90
76172;DHT22;64929;51.178;4.138;2024-02-15T06:05:53;13.20;99.90
76172;DHT22;64929;51.178;4.138;2024-02-15T06:08:24;13.20;99.90
76172;DHT22;64929;51.178;4.138;2024-02-15T06:10:50;13.20;99.90
76172;DHT22;64929;51.178;4.138;2024-02-15T06:13:16;13.10;99.90
76172;DHT22;64929;51.178;4.138;2024-02-15T06:15:41;13.10;99.90
76172;DHT22;64929;51.178;4.138;2024-02-15T06:18:08;13.20;99.90
76172;DHT22;64929;51.178;4.138;2024-02-15T06:20:35;13.20;99.90
76172;DHT22;64929;51.178;4.138;2024-02-15T06:23:02;13.10;99.90
76172;DHT22;64929;51.178;4.138;2024-02-15T06:25:33;13.10;99.90
76172;DHT22;64929;51.178;4.138;2024-02-15T06:27:59;13.00;99.90
76172;DHT22;64929;51.178;4.138;2024-02-15T06:30:28;13.00;99.90
76172;DHT22;64929;51.178;4.138;2024-02-15T06:33:12;13.10;99.90
76172;DHT22;64929;51.178;4.138;2024-02-15T06:35:57;13.00;99.90
76172;DHT22;64929;51.178;4.138;2024-02-15T06:38:41;13.10;99.90
76172;DHT22;64929;51.178;4.138;2024-02-15T06:41:25;13.10;99.90
76172;DHT22;64929;51.178;4.138;2024-02-15T06:43:51;13.20;99.90
76172;DHT22;64929;51.178;4.138;2024-02-15T06:46:17;13.30;99.90
76172;DHT22;64929;51.178;4.138;2024-02-15T06:48:44;13.30;99.90
76172;DHT22;64929;51.178;4.138;2024-02-15T06:51:13;13.30;99.90
76172;DHT22;64929;51.178;4.138;2024-02-15T06:53:40;13.40;99.90
76172;DHT22;64929;51.178;4.138;2024-02-15T06:56:09;13.30;99.90
76172;DHT22;64929;51.178;4.138;2024-02-15T06:58:35;13.30;99.90
76172;DHT22;64929;51.178;4.138;2024-02-15T07:01:01;13.30;99.90
76172;DHT22;64929;51.178;4.138;2024-02-15T07:03:28;13.20;99.90
76172;DHT22;64929;51.178;4.138;2024-02-15T07:05:55;13.20;99.90
76172;DHT22;64929;51.178;4.138;2024-02-15T07:08:21;13.20;99.90
76172;DHT22;64929;51.178;4.138;2024-02-15T07:10:50;13.10;99.90
76172;DHT22;64929;51.178;4.138;2024-02-15T07:13:17;13.10;99.90
76172;DHT22;64929;51.178;4.138;2024-02-15T07:15:45;13.20;99.90
76172;DHT22;64929;51.178;4.138;2024-02-15T07:18:12;13.20;99.90
76172;DHT22;64929;51.178;4.138;2024-02-15T07:20:41;13.20;99.90
76172;DHT22;64929;51.178;4.138;2024-02-15T07:23:07;13.30;99.90
76172;DHT22;64929;51.178;4.138;2024-02-15T07:25:33;13.20;99.90
76172;DHT22;64929;51.178;4.138;2024-02-15T07:27:58;13.40;99.90
76172;DHT22;64929;51.178;4.138;2024-02-15T07:30:24;13.30;99.90
76172;DHT22;64929;51.178;4.138;2024-02-15T07:32:50;13.40;99.90
76172;DHT22;64929;51.178;4.138;2024-02-15T07:35:16;13.30;99.90
76172;DHT22;64929;51.178;4.138;2024-02-15T07:37:55;13.20;99.90
76172;DHT22;64929;51.178;4.138;2024-02-15T07:40:23;13.30;99.90
76172;DHT22;64929;51.178;4.138;2024-02-15T07:42:53;13.30;99.90
76172;DHT22;64929;51.178;4.138;2024-02-15T07:45:18;13.30;99.90
76172;DHT22;64929;51.178;4.138;2024-02-15T07:47:44;13.30;99.90
76172;DHT22;64929;51.178;4.138;2024-02-15T07:50:10;13.30;99.90
76172;DHT22;64929;51.178;4.138;2024-02-15T07:52:38;13.30;99.90
76172;DHT22;64929;51.178;4.138;2024-02-15T07:55:04;13.30;99.90
76172;DHT22;64929;51.178;4.138;2024-02-15T07:57:34;13.30;99.90
76172;DHT22;64929;51.178;4.138;2024-02-15T08:00:00;13.40;99.90
76172;DHT22;64929;51.178;4.138;2024-02-15T08:02:25;13.30;99.90
76172;DHT22;64929;51.178;4.138;2024-02-15T08:04:54;13.10;99.90
76172;DHT22;64929;51.178;4.138;2024-02-15T08:07:20;13.00;99.90
76172;DHT22;64929;51.178;4.138;2024-02-15T08:09:46;12.90;99.90
76172;DHT22;64929;51.178;4.138;2024-02-15T08:12:12;12.90;99.90
76172;DHT22;64929;51.178;4.138;2024-02-15T08:14:38;12.70;99.90
76172;DHT22;64929;51.178;4.138;2024-02-15T08:17:05;12.70;99.90
76172;DHT22;64929;51.178;4.138;2024-02-15T08:19:33;12.70;99.90
76172;DHT22;64929;51.178;4.138;2024-02-15T08:22:06;12.80;99.90
76172;DHT22;64929;51.178;4.138;2024-02-15T08:24:31;12.80;99.90
76172;DHT22;64929;51.178;4.138;2024-02-15T08:26:57;12.80;99.90
76172;DHT22;64929;51.178;4.138;2024-02-15T08:29:25;12.80;99.90
76172;DHT22;64929;51.178;4.138;2024-02-15T08:31:50;12.90;99.90
76172;DHT22;64929;51.178;4.138;2024-02-15T08:34:16;12.90;99.90
76172;DHT22;64929;51.178;4.138;2024-02-15T08:36:44;12.80;99.90
76172;DHT22;64929;51.178;4.138;2024-02-15T08:39:10;12.80;99.90
76172;DHT22;64929;51.178;4.138;2024-02-15T08:41:38;12.70;99.90
76172;DHT22;64929;51.178;4.138;2024-02-15T08:44:05;12.70;99.90
76172;DHT22;64929;51.178;4.138;2024-02-15T08:46:36;12.80;99.90
76172;DHT22;64929;51.178;4.138;2024-02-15T08:49:02;12.80;99.90
76172;DHT22;64929;51.178;4.138;2024-02-15T08:51:31;12.80;99.90
76172;DHT22;64929;51.178;4.138;2024-02-15T08:53:58;12.80;99.90
76172;DHT22;64929;51.178;4.138;2024-02-15T08:56:25;12.70;99.90
76172;DHT22;64929;51.178;4.138;2024-02-15T08:58:51;12.80;99.90
76172;DHT22;64929;51.178;4.138;2024-02-15T09:01:16;12.70;99.90
76172;DHT22;64929;51.178;4.138;2024-02-15T09:03:42;12.80;99.90
76172;DHT22;64929;51.178;4.138;2024-02-15T09:06:08;12.80;99.90
76172;DHT22;64929;51.178;4.138;2024-02-15T09:08:34;12.80;99.90
76172;DHT22;64929;51.178;4.138;2024-02-15T09:11:00;12.80;99.90
76172;DHT22;64929;51.178;4.138;2024-02-15T09:13:25;12.80;99.90
76172;DHT22;64929;51.178;4.138;2024-02-15T09:15:51;12.80;99.90
76172;DHT22;64929;51.178;4.138;2024-02-15T09:18:17;12.90;99.90
76172;DHT22;64929;51.178;4.138;2024-02-15T09:20:46;13.00;99.90
76172;DHT22;64929;51.178;4.138;2024-02-15T09:23:13;13.10;99.90
76172;DHT22;64929;51.178;4.138;2024-02-15T09:25:40;13.20;99.90
76172;DHT22;64929;51.178;4.138;2024-02-15T09:28:08;13.30;99.90
76172;DHT22;64929;51.178;4.138;2024-02-15T09:30:34;13.10;99.90
76172;DHT22;64929;51.178;4.138;2024-02-15T09:33:01;13.10;99.90
76172;DHT22;64929;51.178;4.138;2024-02-15T09:35:30;13.10;99.90
76172;DHT22;64929;51.178;4.138;2024-02-15T09:37:56;13.30;99.90
76172;DHT22;64929;51.178;4.138;2024-02-15T09:40:22;13.20;99.90
76172;DHT22;64929;51.178;4.138;2024-02-15T09:42:52;13.30;99.90
76172;DHT22;64929;51.178;4.138;2024-02-15T09:45:18;13.50;99.90
76172;DHT22;64929;51.178;4.138;2024-02-15T09:47:46;13.50;99.90
76172;DHT22;64929;51.178;4.138;2024-02-15T09:50:16;13.40;99.90
76172;DHT22;64929;51.178;4.138;2024-02-15T09:52:53;13.60;99.90
76172;DHT22;64929;51.178;4.138;2024-02-15T09:55:22;13.60;99.90
76172;DHT22;64929;51.178;4.138;2024-02-15T09:57:49;13.60;99.90
76172;DHT22;64929;51.178;4.138;2024-02-15T10:00:16;13.60;99.90
76172;DHT22;64929;51.178;4.138;2024-02-15T10:02:48;13.60;99.90
76172;DHT22;64929;51.178;4.138;2024-02-15T10:05:16;13.70;99.90
76172;DHT22;64929;51.178;4.138;2024-02-15T10:07:44;13.70;99.90
76172;DHT22;64929;51.178;4.138;2024-02-15T10:10:17;13.70;99.90
76172;DHT22;64929;51.178;4.138;2024-02-15T10:12:46;13.70;99.90
76172;DHT22;64929;51.178;4.138;2024-02-15T10:15:37;13.70;99.90
76172;DHT22;64929;51.178;4.138;2024-02-15T10:18:07;13.80;99.90
76172;DHT22;64929;51.178;4.138;2024-02-15T10:20:36;13.80;99.90
76172;DHT22;64929;51.178;4.138;2024-02-15T10:25:34;14.00;99.90
76172;DHT22;64929;51.178;4.138;2024-02-15T10:28:07;14.20;99.90
76172;DHT22;64929;51.178;4.138;2024-02-15T10:30:40;14.30;99.90
76172;DHT22;64929;51.178;4.138;2024-02-15T10:33:19;14.30;99.90
76172;DHT22;64929;51.178;4.138;2024-02-15T10:35:47;14.30;99.90
76172;DHT22;64929;51.178;4.138;2024-02-15T10:38:14;14.40;99.90
76172;DHT22;64929;51.178;4.138;2024-02-15T10:40:41;14.50;99.90
76172;DHT22;64929;51.178;4.138;2024-02-15T10:43:08;14.50;99.90
76172;DHT22;64929;51.178;4.138;2024-02-15T10:45:38;14.60;99.90
76172;DHT22;64929;51.178;4.138;2024-02-15T10:48:11;14.70;99.90
76172;DHT22;64929;51.178;4.138;2024-02-15T10:50:41;14.70;99.90
76172;DHT22;64929;51.178;4.138;2024-02-15T10:53:28;14.80;99.90
76172;DHT22;64929;51.178;4.138;2024-02-15T10:56:19;15.00;99.90
76172;DHT22;64929;51.178;4.138;2024-02-15T10:58:59;14.90;99.90
76172;DHT22;64929;51.178;4.138;2024-02-15T11:01:31;15.10;99.90
76172;DHT22;64929;51.178;4.138;2024-02-15T11:04:00;15.20;99.90
76172;DHT22;64929;51.178;4.138;2024-02-15T11:06:30;15.30;99.90
76172;DHT22;64929;51.178;4.138;2024-02-15T11:08:59;15.30;99.90
76172;DHT22;64929;51.178;4.138;2024-02-15T11:11:25;15.30;99.90
76172;DHT22;64929;51.178;4.138;2024-02-15T11:14:27;15.40;99.90
76172;DHT22;64929;51.178;4.138;2024-02-15T11:16:56;15.60;99.90
76172;DHT22;64929;51.178;4.138;2024-02-15T11:21:58;15.60;99.90
76172;DHT22;64929;51.178;4.138;2024-02-15T11:24:33;15.70;99.90
76172;DHT22;64929;51.178;4.138;2024-02-15T11:27:05;16.00;99.90
76172;DHT22;64929;51.178;4.138;2024-02-15T11:29:51;16.10;99.90
76172;DHT22;64929;51.178;4.138;2024-02-15T11:35:14;16.30;99.90
76172;DHT22;64929;51.178;4.138;2024-02-15T11:40:25;16.20;99.90
76172;DHT22;64929;51.178;4.138;2024-02-15T11:43:01;16.20;99.90
76172;DHT22;64929;51.178;4.138;2024-02-15T11:45:30;16.20;99.90
76172;DHT22;64929;51.178;4.138;2024-02-15T11:48:00;16.10;99.90
76172;DHT22;64929;51.178;4.138;2024-02-15T11:50:27;16.10;99.90
76172;DHT22;64929;51.178;4.138;2024-02-15T11:53:02;16.20;99.90
76172;DHT22;64929;51.178;4.138;2024-02-15T11:55:31;16.20;99.90
76172;DHT22;64929;51.178;4.138;2024-02-15T11:58:02;16.30;99.90
76172;DHT22;64929;51.178;4.138;2024-02-15T12:00:31;16.30;99.90
76172;DHT22;64929;51.178;4.138;2024-02-15T12:03:36;16.30;99.90
76172;DHT22;64929;51.178;4.138;2024-02-15T12:06:19;16.60;99.90
76172;DHT22;64929;51.178;4.138;2024-02-15T12:09:04;17.00;99.90
76172;DHT22;64929;51.178;4.138;2024-02-15T12:11:57;17.40;99.90
76172;DHT22;64929;51.178;4.138;2024-02-15T12:14:41;17.30;99.90
76172;DHT22;64929;51.178;4.138;2024-02-15T12:17:25;17.20;99.90
76172;DHT22;64929;51.178;4.138;2024-02-15T12:20:09;17.10;99.90
76172;DHT22;64929;51.178;4.138;2024-02-15T12:22:45;17.00;99.90
76172;DHT22;64929;51.178;4.138;2024-02-15T12:25:16;17.10;99.90
76172;DHT22;64929;51.178;4.138;2024-02-15T12:27:46;17.00;99.90
76172;DHT22;64929;51.178;4.138;2024-02-15T12:30:18;17.00;99.90
76172;DHT22;64929;51.178;4.138;2024-02-15T12:32:51;16.90;99.90
76172;DHT22;64929;51.178;4.138;2024-02-15T12:35:21;16.80;99.90
76172;DHT22;64929;51.178;4.138;2024-02-15T12:40:37;16.80;99.90
76172;DHT22;64929;51.178;4.138;2024-02-15T12:43:07;16.80;99.90
76172;DHT22;64929;51.178;4.138;2024-02-15T12:45:36;16.70;99.90
76172;DHT22;64929;51.178;4.138;2024-02-15T12:48:07;16.60;99.90
76172;DHT22;64929;51.178;4.138;2024-02-15T12:50:33;16.60;99.90
76172;DHT22;64929;51.178;4.138;2024-02-15T12:52:59;16.70;99.90
76172;DHT22;64929;51.178;4.138;2024-02-15T12:55:32;17.00;99.90
76172;DHT22;64929;51.178;4.138;2024-02-15T12:58:01;17.10;99.90
76172;DHT22;64929;51.178;4.138;2024-02-15T13:00:30;17.10;99.90
76172;DHT22;64929;51.178;4.138;2024-02-15T13:03:03;17.30;99.90
76172;DHT22;64929;51.178;4.138;2024-02-15T13:05:30;17.60;99.90
76172;DHT22;64929;51.178;4.138;2024-02-15T13:07:57;17.60;99.90
76172;DHT22;64929;51.178;4.138;2024-02-15T13:10:36;17.50;99.90
76172;DHT22;64929;51.178;4.138;2024-02-15T13:13:02;17.50;99.90
76172;DHT22;64929;51.178;4.138;2024-02-15T13:15:28;17.50;99.90
76172;DHT22;64929;51.178;4.138;2024-02-15T13:17:58;17.40;99.90
76172;DHT22;64929;51.178;4.138;2024-02-15T13:20:23;17.20;99.90
76172;DHT22;64929;51.178;4.138;2024-02-15T13:23:01;17.30;99.90
76172;DHT22;64929;51.178;4.138;2024-02-15T13:25:33;17.50;99.90
76172;DHT22;64929;51.178;4.138;2024-02-15T13:27:59;17.40;99.90
76172;DHT22;64929;51.178;4.138;2024-02-15T13:30:24;17.40;99.90
76172;DHT22;64929;51.178;4.138;2024-02-15T13:32:53;17.30;99.90
76172;DHT22;64929;51.178;4.138;2024-02-15T13:35:22;17.40;99.90
76172;DHT22;64929;51.178;4.138;2024-02-15T13:37:55;17.30;99.90
76172;DHT22;64929;51.178;4.138;2024-02-15T13:40:27;17.40;99.90
76172;DHT22;64929;51.178;4.138;2024-02-15T13:42:55;17.40;99.90
76172;DHT22;64929;51.178;4.138;2024-02-15T13:47:56;17.50;99.90
76172;DHT22;64929;51.178;4.138;2024-02-15T13:50:22;17.50;99.60
76172;DHT22;64929;51.178;4.138;2024-02-15T13:52:49;17.50;99.30
76172;DHT22;64929;51.178;4.138;2024-02-15T13:55:16;17.60;99.90
76172;DHT22;64929;51.178;4.138;2024-02-15T13:57:44;17.60;98.80
76172;DHT22;64929;51.178;4.138;2024-02-15T14:00:13;17.60;99.10
76172;DHT22;64929;51.178;4.138;2024-02-15T14:02:48;17.50;99.20
76172;DHT22;64929;51.178;4.138;2024-02-15T14:05:13;17.50;99.80
76172;DHT22;64929;51.178;4.138;2024-02-15T14:07:39;17.70;99.60
76172;DHT22;64929;51.178;4.138;2024-02-15T14:10:06;17.60;99.80
76172;DHT22;64929;51.178;4.138;2024-02-15T14:12:33;17.70;99.60
76172;DHT22;64929;51.178;4.138;2024-02-15T14:15:00;17.60;99.30
76172;DHT22;64929;51.178;4.138;2024-02-15T14:17:25;17.50;99.40
76172;DHT22;64929;51.178;4.138;2024-02-15T14:19:53;17.70;99.80
76172;DHT22;64929;51.178;4.138;2024-02-15T14:22:19;17.70;99.40
76172;DHT22;64929;51.178;4.138;2024-02-15T14:24:49;17.70;99.40
76172;DHT22;64929;51.178;4.138;2024-02-15T14:27:15;17.50;99.30
76172;DHT22;64929;51.178;4.138;2024-02-15T14:29:40;17.60;99.60
76172;DHT22;64929;51.178;4.138;2024-02-15T14:32:26;17.40;99.70
76172;DHT22;64929;51.178;4.138;2024-02-15T14:35:10;17.30;99.90
76172;DHT22;64929;51.178;4.138;2024-02-15T14:37:36;17.30;99.90
76172;DHT22;64929;51.178;4.138;2024-02-15T14:40:02;17.20;99.90
76172;DHT22;64929;51.178;4.138;2024-02-15T14:42:29;17.30;99.90
76172;DHT22;64929;51.178;4.138;2024-02-15T14:44:55;17.30;99.90
76172;DHT22;64929;51.178;4.138;2024-02-15T14:47:21;17.50;99.90
76172;DHT22;64929;51.178;4.138;2024-02-15T14:49:47;17.50;99.60
76172;DHT22;64929;51.178;4.138;2024-02-15T14:52:14;17.30;99.90
76172;DHT22;64929;51.178;4.138;2024-02-15T14:54:40;17.30;99.90
76172;DHT22;64929;51.178;4.138;2024-02-15T14:57:06;17.50;99.90
76172;DHT22;64929;51.178;4.138;2024-02-15T14:59:32;17.60;99.90
76172;DHT22;64929;51.178;4.138;2024-02-15T15:02:00;17.60;99.90
76172;DHT22;64929;51.178;4.138;2024-02-15T15:04:34;17.50;99.80
76172;DHT22;64929;51.178;4.138;2024-02-15T15:07:13;17.50;99.70
76172;DHT22;64929;51.178;4.138;2024-02-15T15:09:57;17.40;99.60
76172;DHT22;64929;51.178;4.138;2024-02-15T15:12:41;17.70;99.60
76172;DHT22;64929;51.178;4.138;2024-02-15T15:15:11;17.70;99.10
76172;DHT22;64929;51.178;4.138;2024-02-15T15:17:40;17.60;99.10
76172;DHT22;64929;51.178;4.138;2024-02-15T15:20:06;17.60;98.90
76172;DHT22;64929;51.178;4.138;2024-02-15T15:22:34;17.70;99.20
76172;DHT22;64929;51.178;4.138;2024-02-15T15:25:02;17.80;98.80
76172;DHT22;64929;51.178;4.138;2024-02-15T15:27:29;17.70;98.70
76172;DHT22;64929;51.178;4.138;2024-02-15T15:29:55;17.70;98.50
76172;DHT22;64929;51.178;4.138;2024-02-15T15:32:22;17.70;99.10
76172;DHT22;64929;51.178;4.138;2024-02-15T15:34:48;17.70;99.20
76172;DHT22;64929;51.178;4.138;2024-02-15T15:37:14;18.00;98.80
76172;DHT22;64929;51.178;4.138;2024-02-15T15:39:41;18.10;98.30
76172;DHT22;64929;51.178;4.138;2024-02-15T15:42:07;18.10;98.70
76172;DHT22;64929;51.178;4.138;2024-02-15T15:44:33;17.90;98.70
76172;DHT22;64929;51.178;4.138;2024-02-15T15:46:59;17.80;98.90
76172;DHT22;64929;51.178;4.138;2024-02-15T15:49:26;17.60;99.00
76172;DHT22;64929;51.178;4.138;2024-02-15T15:51:51;17.50;98.90
76172;DHT22;64929;51.178;4.138;2024-02-15T15:54:19;17.30;99.00